Tiempo atmosférico en la estación meteorológica de Banyalbufar, Illes Balears (60 m.)



Fecha
DESCASC
Temp. máxima en grados centígrados (hora)
DESCASC
Temp. mínima en grados centígrados (hora)
DESCASC
Temp. media en grados centígrados
DESCASC
Racha de viento máxima en m/sg (hora)
DESCASC
Velocidad máxima media en intervalos de 10 minutos(hora)
DESCASC
Precipitaciones diarias en mm
DESCASC
Precipitaciones de 00:00 a 06:00 en mm
DESCASC
Precipitaciones de 06:00 a 12:00 en mm
DESCASC
Precipitaciones de 12:00 a 18:00 en mm
DESCASC
Precipitaciones de 18:00 a 24:00 en mm
DESCASC
02-04-2020 16.4 (09:10) 12.9 (23:20) 14.6 11.94 (18:30) 7.5 (19:00) 1.2 0 1 0.2 0
01-04-2020 18.2 (12:10) 14.4 (04:50) 16.3 17.22 (00:50) 10.56 (04:00) 3.4 0 0.2 3.2 0
31-03-2020 16.7 (18:40) 13.8 (00:00) 15.3 20 (11:10) 12.22 (12:40) 0.6 0 0.2 0.4 0
30-03-2020 15.7 (18:30) 11.3 (00:00) 13.5 6.11 (12:10) 3.33 (12:20) 0 0 0 0 0
29-03-2020 17.9 (14:20) 9.4 (00:00) 13.6 7.5 (22:00) 5 (18:20) 0 0 0 0 0
28-03-2020 14.2 (16:20) 9.3 (00:00) 11.8 7.5 (10:00) 3.33 (16:30) 1.4 0 1.4 0 0
27-03-2020 13.5 (15:00) 8 (00:00) 10.8 9.17 (20:20) 5.56 (20:20) 0 0 0 0 0
26-03-2020 11.4 (17:00) 7.9 (00:00) 9.6 9.72 (19:40) 5.83 (19:40) 7.8 0 7.2 0 0.6
25-03-2020 12.8 (15:00) 9 (00:00) 10.9 8.61 (12:40) 5.56 (12:50) 0 0 0 0 0
24-03-2020 16 (12:30) 10.4 (00:00) 13.2 10.83 (17:50) 6.67 (00:20) 0 0 0 0 0
23-03-2020 16.9 (14:50) 11.8 (00:00) 14.3 10.56 (23:40) 6.11 (23:59) 0.2 0 0.2 0 0
22-03-2020 16.6 (15:10) 11.4 (12:10) 14 10.83 (12:00) 6.67 (12:00) 28.2 0 19.6 8.6 0
21-03-2020 15.3 (09:50) 10.7 (00:00) 13 8.33 (11:30) 5 (13:30) 0 0 0 0 0
20-03-2020 16.7 (13:50) 11.9 (00:00) 14.3 8.89 (02:30) 5 (16:20) 0 0 0 0 0
19-03-2020 16.8 (10:10) 11.7 (00:00) 14.2 7.78 (20:20) 4.72 (20:20) 0 0 0 0 0
18-03-2020 15.7 (00:00) 12.9 (00:00) 14.3 7.78 (12:50) 5.28 (11:20) 0 0 0 0 0
17-03-2020 18.1 (13:50) 15.3 (00:00) 16.7 16.67 (01:20) 10.56 (01:20) 0.2 0.2 0 0 0
16-03-2020 19.2 (15:40) 13.9 (00:00) 16.6 19.17 (10:00) 11.39 (10:10) 1.4 0 1.4 0 0
15-03-2020 16.1 (11:50) 10.5 (00:00) 13.3 8.33 (23:30) 3.89 (21:30) 0 0 0 0 0
14-03-2020 16.9 (17:50) 11.4 (00:00) 14.1 4.72 (03:30) 2.78 (03:30) 1 1 0 0 0
13-03-2020 18 (09:40) 12.9 (05:00) 15.4 11.11 (15:20) 6.39 (12:30) 0 0 0 0 0
12-03-2020 18.9 (10:30) 13.6 (00:00) 16.3 3.33 (23:40) 2.22 (23:40) 0 0 0 0 0
11-03-2020 20.8 (16:10) 12.4 (00:00) 16.6 5.56 (14:10) 3.33 (13:50) 0 0 0 0 0
10-03-2020 16.5 (15:10) 10 (00:00) 13.3 9.72 (01:00) 5.83 (01:10) 0 0 0 0 0
09-03-2020 16.5 (17:20) 12.4 (00:00) 14.4 10.56 (21:30) 7.78 (11:10) 0 0 0 0 0
08-03-2020 17.5 (17:20) 10.7 (00:00) 14.1 6.67 (05:10) 3.61 (04:30) 0 0 0 0 0
07-03-2020 14.6 (15:10) 9.4 (00:00) 12 18.33 (00:50) 13.89 (00:50) 0 0 0 0 0
06-03-2020 15.4 (01:10) 11.2 (00:00) 13.3 20.83 (19:20) 15 (19:50) 0 0 0 0 0
05-03-2020 19.2 (15:40) 14.6 (00:00) 16.9 18.33 (13:00) 8.89 (14:20) 0 0 0 0 0

Gráficas

Temp. máximas Temp. mínimas Temp. medias Precipitaciones Rachas de viento máximas Velocidades máximas media en intervalos de 10 minutos

Datos horarios

Fecha y hora oficial Temperatura (ºC) Velocidad del viento (km/h) Dirección del viento Racha (km/h) Dirección de racha Precipitación (mm) Presión (hPa) Tendencia (hPa) Humedad (%)
2020-04-03 23:00:00 10.8 8 Sur 13 Sur 0 -- -- 76
2020-04-03 22:00:00 11.6 6 Sur 10 Sudeste 0 -- -- 76
2020-04-03 21:00:00 12 6 Sur 10 Sudeste 0 -- -- 75
2020-04-03 20:00:00 13.9 3 Nordeste 12 Nordeste 0 -- -- 65
2020-04-03 19:00:00 14.6 8 Nordeste 15 Norte 0 -- -- 64
2020-04-03 18:00:00 14.9 9 Nordeste 15 Norte 0 -- -- 65
2020-04-03 17:00:00 15.1 10 Nordeste 22 Nordeste 0 -- -- 66
2020-04-03 16:00:00 14.6 13 Nordeste 27 Nordeste 0 -- -- 67
2020-04-03 15:00:00 14.3 17 Nordeste 30 Nordeste 0 -- -- 68
2020-04-03 14:00:00 13.9 17 Nordeste 35 Nordeste 0 -- -- 67
2020-04-03 13:00:00 13.7 20 Nordeste 33 Nordeste 0 -- -- 68
2020-04-03 12:00:00 13.6 20 Norte 37 Norte 0 -- -- 71
2020-04-03 11:00:00 13.2 24 Norte 40 Norte 0 -- -- 72
2020-04-03 10:00:00 13.1 24 Norte 41 Norte 0 -- -- 77
2020-04-03 09:00:00 13.6 23 Norte 41 Nordeste 0 -- -- 76
2020-04-03 08:00:00 13.6 23 Nordeste 41 Nordeste 0 -- -- 70
2020-04-03 07:00:00 13.5 23 Nordeste 40 Nordeste 0 -- -- 68
2020-04-03 06:00:00 13.3 21 Nordeste 41 Nordeste 0 -- -- 70
2020-04-03 05:00:00 13.2 23 Nordeste 37 Nordeste 0 -- -- 74
2020-04-03 04:00:00 12.9 20 Nordeste 41 Nordeste 0 -- -- 80
2020-04-03 03:00:00 12.9 23 Nordeste 41 Norte 0 -- -- 78
2020-04-03 02:00:00 12.7 20 Nordeste 36 Nordeste 0 -- -- 79
2020-04-03 01:00:00 12.6 23 Nordeste 40 Nordeste 0 -- -- 71
2020-04-03 00:00:00 13 22 Nordeste 43 Norte 0 -- -- 78
2020-04-02 23:00:00 13 24 Nordeste 38 Nordeste 0 -- -- 81
2020-04-02 22:00:00 13.2 23 Nordeste 41 Nordeste 0 -- -- 83
2020-04-02 21:00:00 13.2 25 Nordeste 38 Nordeste 0 -- -- 85
2020-04-02 20:00:00 13.2 24 Nordeste 42 Nordeste 0 -- -- 82
2020-04-02 19:00:00 13.5 27 Nordeste 43 Nordeste 0 -- -- 85
2020-04-02 18:00:00 13.9 24 Nordeste 42 Nordeste 0 -- -- 86
2020-04-02 17:00:00 14.4 13 Nordeste 26 Nordeste 0 -- -- 75
2020-04-02 16:00:00 14.4 8 Nordeste 36 Nordeste 0 -- -- 82
2020-04-02 15:00:00 14.5 11 Nordeste 17 Nordeste 0 -- -- 78
2020-04-02 14:00:00 15.6 8 Nordeste 16 Nordeste 0 -- -- 74
2020-04-02 13:00:00 14.3 5 Sudeste 17 Sudeste 0.2 -- -- 83
2020-04-02 12:00:00 13.4 10 Sudeste 24 Nordeste 1 -- -- 86
2020-04-02 11:00:00 14.5 9 Norte 13 Norte 0 -- -- 83
2020-04-02 10:00:00 15 3 Noroeste 6 Norte 0 -- -- 78
2020-04-02 09:00:00 16 2 Sudeste 6 Sudeste 0 -- -- 73
2020-04-02 08:00:00 13.7 3 Sur 10 Este 0 -- -- 80
2020-04-02 07:00:00 13 6 Sur 11 Sudeste 0 -- -- 82
2020-04-02 06:00:00 14 3 Sudeste 19 Sur 0 -- -- 72
2020-04-02 05:00:00 13.8 9 Sur 17 Sur 0 -- -- 72
2020-04-02 04:00:00 14.1 8 Sur 27 Sudoeste 0 -- -- 69
2020-04-02 03:00:00 14.4 6 Sudeste 12 Sudoeste 0 -- -- 74
2020-04-02 02:00:00 14.5 6 Sur 18 Sudoeste 0 -- -- 79
2020-04-02 01:00:00 14.6 5 Sudeste 12 Nordeste 0 -- -- 81
2020-04-02 00:00:00 15.1 4 Sudeste 20 Sudoeste 0 -- -- 75
2020-04-01 23:00:00 16 12 Sur 26 Sudeste 0 -- -- 66
2020-04-01 22:00:00 15.7 11 Sur 29 Sudeste 0 -- -- 70
2020-04-01 21:00:00 15.7 11 Sur 27 Sudoeste 0 -- -- 67
2020-04-01 20:00:00 17 8 Sudeste 22 Oeste 0 -- -- 64
2020-04-01 19:00:00 17.7 6 Oeste 24 Oeste 0 -- -- 66
2020-04-01 18:00:00 17.1 12 Oeste 29 Sudoeste 0 -- -- 77
2020-04-01 17:00:00 16.3 16 Oeste 28 Oeste 0 -- -- 77
2020-04-01 16:00:00 16.4 15 Oeste 25 Oeste 0.2 -- -- 81
2020-04-01 15:00:00 15.9 14 Oeste 28 Sudoeste 0 -- -- 81
2020-04-01 14:00:00 16.3 14 Sudoeste 30 Oeste 0.6 -- -- 79
2020-04-01 13:00:00 16.4 12 Sudoeste 23 Sudoeste 2.4 -- -- 80
2020-04-01 12:00:00 17.5 12 Este 28 Este 0 -- -- 71
2020-04-01 11:00:00 16.1 21 Sudeste 39 Sudeste 0 -- -- 75
2020-04-01 10:00:00 15.3 23 Sudeste 44 Sudeste 0.2 -- -- 78
2020-04-01 09:00:00 14.7 24 Sudeste 51 Sudeste 0 -- -- 80
2020-04-01 08:00:00 14.7 30 Sudeste 46 Sudeste 0 -- -- 77
2020-04-01 07:00:00 14.6 24 Sudeste 54 Este 0 -- -- 76
2020-04-01 06:00:00 14.7 28 Sudeste 58 Sudeste 0 -- -- 75
2020-04-01 05:00:00 14.5 32 Sudeste 59 Sudeste 0 -- -- 76
2020-04-01 04:00:00 14.7 38 Sudeste 60 Sudeste 0 -- -- 77
2020-04-01 03:00:00 15 34 Sudeste 61 Sudeste 0 -- -- 77
2020-04-01 02:00:00 15.2 34 Sudeste 60 Sudeste 0 -- -- 76
2020-04-01 01:00:00 15.3 36 Sudeste 62 Sudeste 0 -- -- 75
2020-04-01 00:00:00 15.1 33 Sudeste 63 Sudeste 0 -- -- 76
2020-03-31 23:00:00 15.1 35 Sudeste 59 Sur 0 -- -- 75
2020-03-31 22:00:00 15.3 31 Sudeste 60 Sudeste 0 -- -- 74
2020-03-31 21:00:00 15.4 33 Sudeste 59 Sudeste 0 -- -- 73
2020-03-31 20:00:00 15.7 32 Sudeste 57 Sudeste 0 -- -- 74
2020-03-31 19:00:00 16.3 20 Sudeste 48 Sudeste 0 -- -- 71
2020-03-31 18:00:00 16.2 23 Sudeste 45 Sudeste 0 -- -- 72
2020-03-31 17:00:00 16.1 24 Sudeste 50 Sudeste 0 -- -- 73
2020-03-31 16:00:00 15.5 30 Sudeste 53 Sudeste 0.4 -- -- 75
2020-03-31 15:00:00 15.7 30 Sudeste 58 Sudeste 0 -- -- 74
2020-03-31 14:00:00 15.8 37 Sudeste 68 Sudeste 0 -- -- 69
2020-03-31 13:00:00 15.6 43 Sudeste 70 Sudeste 0 -- -- 69
2020-03-31 12:00:00 15.1 36 Sudeste 72 Sudeste 0 -- -- 74
2020-03-31 11:00:00 15.7 41 Sudeste 72 Sudeste 0 -- -- 67
2020-03-31 10:00:00 15.4 36 Sudeste 72 Sudeste 0 -- -- 67
2020-03-31 09:00:00 14.7 37 Sudeste 70 Sudeste 0.2 -- -- 68
2020-03-31 08:00:00 14.3 35 Sudeste 65 Sudeste 0 -- -- 70
2020-03-31 07:00:00 14.2 27 Sudeste 45 Sudeste 0 -- -- 67
2020-03-31 06:00:00 14 14 Este 27 Este 0 -- -- 67
2020-03-31 05:00:00 14 17 Sudeste 40 Sudeste 0 -- -- 69
2020-03-31 04:00:00 14 25 Sudeste 43 Sudeste 0 -- -- 74
2020-03-31 03:00:00 14 7 Este 36 Sudeste 0 -- -- 76
2020-03-31 02:00:00 13.9 12 Sudeste 27 Nordeste 0 -- -- 77
2020-03-31 01:00:00 13.8 10 Nordeste 21 Nordeste 0 -- -- 78
2020-03-31 00:00:00 13.8 6 Nordeste 13 Este 0 -- -- 77
2020-03-30 23:00:00 12.8 3 Sudoeste 12 Sudoeste 0 -- -- 81
2020-03-30 22:00:00 12 6 Sur 11 Sur 0 -- -- 86
2020-03-30 21:00:00 12.4 8 Sur 10 Sur 0 -- -- 84
2020-03-30 20:00:00 14.2 0 Calma 10 Norte 0 -- -- 79
2020-03-30 19:00:00 14.8 5 Norte 10 Norte 0 -- -- 78
2020-03-30 18:00:00 14.7 8 Norte 11 Norte 0 -- -- 78
2020-03-30 17:00:00 14.7 5 Norte 10 Norte 0 -- -- 78
2020-03-30 16:00:00 14.6 0 Calma 6 Norte 0 -- -- 77
2020-03-30 15:00:00 14.3 3 Noroeste 6 Oeste 0 -- -- 78
2020-03-30 14:00:00 13.9 0 Calma 13 Norte 0 -- -- 80
2020-03-30 13:00:00 13.6 3 Noroeste 22 Oeste 0 -- -- 82
2020-03-30 12:00:00 15.2 8 Oeste 14 Oeste 0 -- -- 75
2020-03-30 11:00:00 15.4 8 Oeste 14 Este 0 -- -- 72
2020-03-30 10:00:00 14.3 3 Noroeste 10 Sur 0 -- -- 77
2020-03-30 09:00:00 12.7 6 Sur 13 Sur 0 -- -- 83
2020-03-30 08:00:00 12 6 Sur 13 Sur 0 -- -- 72
2020-03-30 07:00:00 11.4 11 Sur 14 Sur 0 -- -- 68
2020-03-30 06:00:00 11.6 10 Sur 13 Sur 0 -- -- 66
2020-03-30 05:00:00 11.7 8 Sur 12 Sur 0 -- -- 63
2020-03-30 04:00:00 12.8 5 Sur 14 Sudoeste 0 -- -- 53
2020-03-30 03:00:00 13.8 4 Sudeste 15 Sur 0 -- -- 49
2020-03-30 02:00:00 12.3 7 Sur 13 Sur 0 -- -- 59
2020-03-30 01:00:00 12.9 6 Sur 11 Sur 0 -- -- 55
2020-03-30 00:00:00 15.4 3 Norte 24 Sudoeste 0 -- -- 47
2020-03-29 23:00:00 16 13 Sudoeste 26 Sudoeste 0 -- -- 43
2020-03-29 22:00:00 15.8 10 Sudoeste 27 Sudoeste 0 -- -- 44
2020-03-29 21:00:00 14.8 11 Sur 20 Sudoeste 0 -- -- 47
2020-03-29 20:00:00 15.6 7 Sudoeste 19 Oeste 0 -- -- 54
2020-03-29 19:00:00 16.8 12 Oeste 23 Oeste 0 -- -- 55
2020-03-29 18:00:00 16.9 16 Oeste 21 Oeste 0 -- -- 61
2020-03-29 17:00:00 16.8 11 Oeste 18 Oeste 0 -- -- 69
2020-03-29 16:00:00 16.8 12 Oeste 20 Oeste 0 -- -- 67
2020-03-29 15:00:00 16.3 11 Oeste 18 Oeste 0 -- -- 66
2020-03-29 14:00:00 17.3 7 Oeste 17 Sudoeste 0 -- -- 48
2020-03-29 13:00:00 16.6 8 Oeste 16 Oeste 0 -- -- 52
2020-03-29 12:00:00 15.4 9 Oeste 15 Oeste 0 -- -- 56
2020-03-29 11:00:00 13.9 4 Sur 10 Sudeste 0 -- -- 63
2020-03-29 10:00:00 12.3 3 Sur 10 Sur 0 -- -- 77
2020-03-29 09:00:00 11.1 5 Sur 12 Sur 0 -- -- 78
2020-03-29 08:00:00 9.9 5 Sur 13 Sur 0 -- -- 77
2020-03-29 07:00:00 9.6 10 Sur 14 Sur 0 -- -- 82
2020-03-29 06:00:00 9.6 11 Sur 13 Sur 0 -- -- 83
2020-03-29 05:00:00 9.8 10 Sur 13 Sur 0 -- -- 83
2020-03-29 03:00:00 10.3 10 Sur 13 Sur 0 -- -- 79
2020-03-29 01:00:00 10.7 8 Sur 11 Sur 0 -- -- 83
2020-03-29 00:00:00 11 6 Sur 12 Sur 0 -- -- 84
2020-03-28 23:00:00 10.8 8 Sur 11 Sur 0 -- -- 84
2020-03-28 22:00:00 11.4 5 Sur 8 Sur 0 -- -- 84
2020-03-28 21:00:00 12.1 5 Sudeste 8 Sudeste 0 -- -- 82
2020-03-28 20:00:00 12.1 4 Sur 8 Sudeste 0 -- -- 82
2020-03-28 19:00:00 13.1 3 Este 13 Nordeste 0 -- -- 76
2020-03-28 18:00:00 13.5 5 Nordeste 17 Nordeste 0 -- -- 72
2020-03-28 17:00:00 13.4 12 Nordeste 19 Nordeste 0 -- -- 73
2020-03-28 16:00:00 13.4 11 Nordeste 16 Nordeste 0 -- -- 73
2020-03-28 15:00:00 13.4 11 Norte 18 Norte 0 -- -- 77
2020-03-28 14:00:00 12.5 6 Norte 11 Norte 0 -- -- 80
2020-03-28 13:00:00 12.3 6 Norte 13 Norte 0 -- -- 82
2020-03-28 12:00:00 11.7 9 Norte 14 Norte 0.2 -- -- 85
2020-03-28 11:00:00 11.2 4 Este 25 Norte 1.2 -- -- 87
2020-03-28 10:00:00 12.3 7 Nordeste 27 Norte 0 -- -- 79
2020-03-28 09:00:00 11.7 6 Sudeste 18 Nordeste 0 -- -- 74
2020-03-28 08:00:00 11.4 5 Sudeste 13 Este 0 -- -- 72
2020-03-28 07:00:00 10.3 6 Sudeste 13 Sur 0 -- -- 75
2020-03-28 06:00:00 10.3 5 Sudeste 14 Sudeste 0 -- -- 76
2020-03-28 05:00:00 9.6 6 Sudeste 12 Sur 0 -- -- 77
2020-03-28 04:00:00 10 4 Sudeste 12 Sudeste 0 -- -- 72
2020-03-28 03:00:00 9.6 8 Sudeste 14 Sudeste 0 -- -- 71
2020-03-28 02:00:00 10.3 7 Sudeste 13 Sudeste 0 -- -- 72
2020-03-28 01:00:00 9.8 8 Sudeste 14 Sudeste 0 -- -- 72
2020-03-28 00:00:00 10.3 8 Sudeste 14 Este 0 -- -- 71
2020-03-27 23:00:00 10.7 9 Nordeste 30 Nordeste 0 -- -- 68
2020-03-27 22:00:00 11.1 18 Nordeste 30 Nordeste 0 -- -- 71
2020-03-27 21:00:00 11 11 Nordeste 33 Nordeste 0 -- -- 69
2020-03-27 20:00:00 11.3 5 Este 19 Nordeste 0 -- -- 58
2020-03-27 19:00:00 11.9 12 Nordeste 20 Nordeste 0 -- -- 56
2020-03-27 18:00:00 12.8 10 Nordeste 17 Nordeste 0 -- -- 52
2020-03-27 17:00:00 13.2 10 Nordeste 22 Norte 0 -- -- 52
2020-03-27 16:00:00 13.1 12 Nordeste 20 Norte 0 -- -- 50
2020-03-27 15:00:00 13.5 10 Nordeste 21 Norte 0 -- -- 52
2020-03-27 14:00:00 13 10 Nordeste 21 Nordeste 0 -- -- 50
2020-03-27 13:00:00 12.4 13 Nordeste 24 Nordeste 0 -- -- 52
2020-03-27 12:00:00 12.1 10 Norte 22 Nordeste 0 -- -- 55
2020-03-27 11:00:00 12.2 11 Nordeste 23 Nordeste 0 -- -- 52
2020-03-27 10:00:00 11.5 13 Nordeste 25 Nordeste 0 -- -- 50
2020-03-27 09:00:00 11.3 8 Este 15 Nordeste 0 -- -- 49
2020-03-27 08:00:00 9.3 7 Sudeste 15 Sudeste 0 -- -- 62
2020-03-27 07:00:00 8.7 9 Sudeste 19 Sudeste 0 -- -- 60
2020-03-27 06:00:00 8.6 10 Sudeste 18 Sudeste 0 -- -- 60
2020-03-27 05:00:00 8.2 9 Sudeste 17 Sudeste 0 -- -- 60
2020-03-27 04:00:00 8.1 9 Sudeste 15 Sudeste 0 -- -- 61
2020-03-27 03:00:00 8.3 10 Sudeste 19 Sudeste 0 -- -- 66
2020-03-27 02:00:00 8.8 12 Sudeste 19 Sudeste 0 -- -- 65
2020-03-27 01:00:00 8.1 6 Sudeste 12 Sur 0 -- -- 81
2020-03-27 00:00:00 8.8 4 Sudeste 12 Sudeste 0.6 -- -- 78
2020-03-26 23:00:00 9.3 5 Sudeste 18 Sudeste 0 -- -- 69
2020-03-26 22:00:00 9.3 8 Este 21 Este 0 -- -- 73
2020-03-26 21:00:00 8.9 4 Sudeste 24 Nordeste 0 -- -- 76
2020-03-26 20:00:00 9.6 21 Nordeste 35 Nordeste 0 -- -- 77
2020-03-26 19:00:00 10.8 16 Norte 27 Norte 0 -- -- 65
2020-03-26 18:00:00 11 10 Norte 22 Norte 0 -- -- 62
2020-03-26 17:00:00 11.4 12 Norte 21 Norte 0 -- -- 64
2020-03-26 16:00:00 10.7 15 Norte 25 Norte 0 -- -- 68
2020-03-26 15:00:00 11 12 Norte 20 Norte 0 -- -- 68
2020-03-26 14:00:00 11 4 Nordeste 17 Nordeste 0 -- -- 65
2020-03-26 13:00:00 10.4 5 Nordeste 21 Nordeste 0 -- -- 78
2020-03-26 12:00:00 10.4 9 Nordeste 17 Nordeste 0 -- -- 74
2020-03-26 11:00:00 8.9 7 Sudeste 20 Sudeste 0.8 -- -- 78
2020-03-26 10:00:00 7.9 12 Sur 23 Sur 3.6 -- -- 83
2020-03-26 09:00:00 8.3 15 Sur 29 Sudoeste 2.6 -- -- 83
2020-03-26 08:00:00 9.6 14 Sudoeste 32 Sudoeste 0.2 -- -- 77
2020-03-26 07:00:00 9.3 8 Sudoeste 19 Sur 0 -- -- 68
2020-03-26 06:00:00 9.7 8 Sudoeste 21 Sudoeste 0 -- -- 64
2020-03-26 05:00:00 9.8 9 Sudoeste 21 Sur 0 -- -- 65
2020-03-26 04:00:00 9.8 11 Sudoeste 21 Sur 0 -- -- 65
2020-03-26 03:00:00 10 15 Sur 26 Sur 0 -- -- 60
2020-03-26 02:00:00 10.4 8 Sudoeste 23 Sur 0 -- -- 55
2020-03-26 01:00:00 10.1 12 Sur 22 Sur 0 -- -- 55
2020-03-26 00:00:00 10.3 13 Sur 23 Sudeste 0 -- -- 52
2020-03-25 23:00:00 10.2 12 Sur 21 Sur 0 -- -- 50
2020-03-25 22:00:00 9.4 13 Sur 20 Sur 0 -- -- 52
2020-03-25 21:00:00 9.3 10 Sur 20 Sudeste 0 -- -- 53
2020-03-25 20:00:00 9.6 10 Sur 18 Sur 0 -- -- 53
2020-03-25 19:00:00 10.5 6 Sur 14 Nordeste 0 -- -- 57
2020-03-25 18:00:00 11.6 10 Nordeste 20 Este 0 -- -- 45
2020-03-25 17:00:00 12 13 Nordeste 23 Nordeste 0 -- -- 47
2020-03-25 16:00:00 11.8 14 Nordeste 31 Nordeste 0 -- -- 48
2020-03-25 15:00:00 12.8 13 Nordeste 28 Nordeste 0 -- -- 45
2020-03-25 14:00:00 12.6 15 Nordeste 28 Nordeste 0 -- -- 42
2020-03-25 13:00:00 12 18 Nordeste 31 Nordeste 0 -- -- 47
2020-03-25 12:00:00 11.9 13 Nordeste 28 Nordeste 0 -- -- 50
2020-03-25 11:00:00 11.4 14 Nordeste 27 Norte 0 -- -- 47
2020-03-25 10:00:00 11 14 Nordeste 26 Sudeste 0 -- -- 51
2020-03-25 09:00:00 10.8 6 Este 22 Nordeste 0 -- -- 52
2020-03-25 08:00:00 10.1 7 Sudeste 22 Sudeste 0 -- -- 50
2020-03-25 07:00:00 9.8 8 Sudeste 19 Sudeste 0 -- -- 52
2020-03-25 06:00:00 9.5 12 Sudeste 21 Sudeste 0 -- -- 53
2020-03-25 05:00:00 9.6 8 Sudeste 28 Sudeste 0 -- -- 58
2020-03-25 04:00:00 9.7 15 Sudeste 25 Sudeste 0 -- -- 62
2020-03-25 03:00:00 9.7 8 Sudeste 14 Sur 0 -- -- 60
2020-03-25 02:00:00 10.2 10 Sudeste 22 Este 0 -- -- 57
2020-03-25 01:00:00 10.1 10 Sudeste 15 Este 0 -- -- 61
2020-03-25 00:00:00 10.4 8 Sudeste 17 Sudeste 0 -- -- 61
2020-03-24 23:00:00 11 10 Sudeste 18 Sudeste 0 -- -- 60
2020-03-24 22:00:00 11.5 9 Sudeste 24 Este 0 -- -- 57
2020-03-24 21:00:00 11.7 8 Este 26 Sudeste 0 -- -- 54
2020-03-24 20:00:00 11.8 14 Este 34 Sudeste 0 -- -- 52
2020-03-24 19:00:00 12.4 14 Este 35 Este 0 -- -- 49
2020-03-24 18:00:00 13 19 Sudeste 39 Este 0 -- -- 51
2020-03-24 17:00:00 13.4 21 Sudeste 39 Este 0 -- -- 53
2020-03-24 16:00:00 14.4 12 Este 30 Sudeste 0 -- -- 57
2020-03-24 15:00:00 14.5 13 Este 26 Este 0 -- -- 58
2020-03-24 14:00:00 14.9 14 Nordeste 35 Nordeste 0 -- -- 67
2020-03-24 13:00:00 14.7 20 Nordeste 34 Este 0 -- -- 68
2020-03-24 12:00:00 15.6 13 Este 31 Nordeste 0 -- -- 57
2020-03-24 11:00:00 14.9 15 Nordeste 29 Nordeste 0 -- -- 64
2020-03-24 10:00:00 14.6 16 Nordeste 28 Nordeste 0 -- -- 64
2020-03-24 09:00:00 14.8 8 Este 24 Este 0 -- -- 59
2020-03-24 08:00:00 14.2 15 Sudeste 33 Sudeste 0 -- -- 61
2020-03-24 07:00:00 13.5 9 Sudeste 27 Este 0 -- -- 64
2020-03-24 06:00:00 13.9 12 Este 27 Este 0 -- -- 64
2020-03-24 05:00:00 13.9 10 Este 29 Este 0 -- -- 70
2020-03-24 04:00:00 14.1 7 Sudeste 28 Sudeste 0 -- -- 71
2020-03-24 03:00:00 14.2 11 Este 25 Este 0 -- -- 71
2020-03-24 02:00:00 14.1 12 Sudeste 26 Este 0 -- -- 71
2020-03-24 01:00:00 13.9 16 Sudeste 39 Sudeste 0 -- -- 68
2020-03-24 00:00:00 13.9 22 Sudeste 38 Este 0 -- -- 67
2020-03-23 23:00:00 14.3 12 Nordeste 31 Sudeste 0 -- -- 70
2020-03-23 22:00:00 14.6 13 Este 31 Este 0 -- -- 67
2020-03-23 21:00:00 14.4 14 Sudeste 28 Sudeste 0 -- -- 69
2020-03-23 20:00:00 15 8 Este 28 Sudeste 0 -- -- 67
2020-03-23 19:00:00 15.4 11 Sudeste 20 Sur 0 -- -- 68
2020-03-23 18:00:00 15.1 3 Sudeste 10 Oeste 0 -- -- 78
2020-03-23 17:00:00 15.5 5 Oeste 13 Sudoeste 0 -- -- 73
2020-03-23 16:00:00 15.9 11 Oeste 16 Oeste 0 -- -- 74
2020-03-23 15:00:00 16.4 6 Oeste 10 Oeste 0 -- -- 71
2020-03-23 14:00:00 16.6 8 Nordeste 14 Norte 0 -- -- 66
2020-03-23 13:00:00 15.8 7 Norte 19 Nordeste 0 -- -- 70
2020-03-23 12:00:00 15.8 12 Nordeste 19 Nordeste 0 -- -- 70
2020-03-23 11:00:00 16 11 Nordeste 23 Este 0.2 -- -- 70
2020-03-23 10:00:00 15 13 Nordeste 25 Este 0 -- -- 73
2020-03-23 09:00:00 15.1 10 Nordeste 23 Nordeste 0 -- -- 71
2020-03-23 08:00:00 14 12 Sudeste 23 Sudeste 0 -- -- 76
2020-03-23 07:00:00 13.1 4 Sudeste 23 Sudeste 0 -- -- 77
2020-03-23 06:00:00 13.4 5 Sur 15 Sur 0 -- -- 78
2020-03-23 05:00:00 12.5 6 Sur 19 Sudoeste 0 -- -- 83
2020-03-23 04:00:00 13.5 6 Sudeste 13 Sudeste 0 -- -- 78
2020-03-23 03:00:00 13 4 Sudoeste 15 Nordeste 0 -- -- 80
2020-03-23 02:00:00 13.7 9 Nordeste 16 Este 0 -- -- 81
2020-03-23 01:00:00 12.2 6 Sur 11 Sur 0 -- -- 85
2020-03-23 00:00:00 12.1 6 Sur 12 Sur 0 -- -- 86
2020-03-22 23:00:00 11.7 8 Sur 14 Sur 0 -- -- 89
2020-03-22 22:00:00 12.1 6 Sur 12 Sudoeste 0 -- -- 88
2020-03-22 21:00:00 12.7 7 Sur 12 Sudeste 0 -- -- 87
2020-03-22 20:00:00 12.9 4 Sur 10 Sur 0 -- -- 89
2020-03-22 19:00:00 14.2 4 Sudeste 7 Sudeste 0 -- -- 87
2020-03-22 18:00:00 14.4 2 Este 8 Sudeste 0 -- -- 84
2020-03-22 17:00:00 14.4 4 Nordeste 15 Oeste 3.6 -- -- 84
2020-03-22 16:00:00 14.8 10 Oeste 17 Oeste 0 -- -- 78
2020-03-22 15:00:00 15.9 8 Oeste 13 Oeste 0 -- -- 81
2020-03-22 14:00:00 13.8 3 Sudeste 12 Sur 0.6 -- -- 85
2020-03-22 13:00:00 13 4 Sudeste 37 Sudoeste 4.4 -- -- 84
2020-03-22 12:00:00 12.3 24 Sudoeste 39 Sur 13.8 -- -- 88
2020-03-22 11:00:00 14.8 8 Oeste 14 Oeste 4.8 -- -- 85
2020-03-22 10:00:00 15.2 0 Calma 4 Norte 0 -- -- 82
2020-03-22 09:00:00 14.6 2 Sudoeste 9 Sur 0 -- -- 84
2020-03-22 08:00:00 12.9 5 Sudeste 9 Sudeste 0.2 -- -- 88
2020-03-22 07:00:00 13.2 5 Sur 8 Sudeste 0.8 -- -- 86
2020-03-22 06:00:00 13.8 4 Sudeste 10 Este 0 -- -- 81
2020-03-22 05:00:00 14 5 Sudeste 10 Sudeste 0 -- -- 83
2020-03-22 04:00:00 14 4 Sudeste 12 Sudeste 0 -- -- 83
2020-03-22 03:00:00 14 5 Sudeste 9 Sudeste 0 -- -- 79
2020-03-22 02:00:00 14 5 Sudeste 9 Sur 0 -- -- 79
2020-03-22 01:00:00 13.6 6 Sur 9 Sur 0 -- -- 82
2020-03-22 00:00:00 13.6 5 Sur 8 Sur 0 -- -- 83
2020-03-21 23:00:00 13.7 5 Sur 9 Sur 0 -- -- 83
2020-03-21 22:00:00 13.9 5 Sur 9 Sur 0 -- -- 84
2020-03-21 21:00:00 14 4 Sur 9 Sudoeste 0 -- -- 85
2020-03-21 20:00:00 14.2 5 Sur 10 Sur 0 -- -- 87
2020-03-21 19:00:00 14.9 0 Calma 12 Nordeste 0 -- -- 84
2020-03-21 18:00:00 15 9 Nordeste 20 Nordeste 0 -- -- 85
2020-03-21 17:00:00 15.1 13 Nordeste 24 Nordeste 0 -- -- 84
2020-03-21 16:00:00 15 14 Nordeste 25 Nordeste 0 -- -- 84
2020-03-21 15:00:00 14.8 15 Nordeste 27 Nordeste 0 -- -- 83
2020-03-21 14:00:00 15 15 Nordeste 26 Nordeste 0 -- -- 82
2020-03-21 13:00:00 14.8 15 Nordeste 29 Nordeste 0 -- -- 83
2020-03-21 12:00:00 14.6 16 Nordeste 30 Nordeste 0 -- -- 83
2020-03-21 11:00:00 14.6 16 Nordeste 27 Nordeste 0 -- -- 83
2020-03-21 10:00:00 15.3 7 Nordeste 13 Nordeste 0 -- -- 74
2020-03-21 09:00:00 14.4 0 Calma 8 Sur 0 -- -- 66
2020-03-21 08:00:00 12.4 4 Sudeste 11 Sudeste 0 -- -- 72
2020-03-21 07:00:00 11 6 Sur 10 Sur 0 -- -- 76
2020-03-21 06:00:00 10.7 8 Sur 11 Sur 0 -- -- 77
2020-03-21 05:00:00 10.9 9 Sur 11 Sur 0 -- -- 75
2020-03-21 04:00:00 11.5 8 Sur 12 Sur 0 -- -- 71
2020-03-21 03:00:00 12.2 6 Sur 16 Sudeste 0 -- -- 68
2020-03-21 02:00:00 13.3 12 Sudeste 24 Sudeste 0 -- -- 65
2020-03-21 01:00:00 13.3 13 Sudeste 26 Sudeste 0 -- -- 68
2020-03-21 00:00:00 11.9 8 Sur 13 Sur 0 -- -- 72
2020-03-20 23:00:00 12.7 9 Sur 14 Sudeste 0 -- -- 69
2020-03-20 22:00:00 14.3 13 Sudeste 28 Sudeste 0 -- -- 65
2020-03-20 21:00:00 14.4 14 Este 29 Este 0 -- -- 69
2020-03-20 20:00:00 14.6 10 Sudeste 22 Sudeste 0 -- -- 65
2020-03-20 19:00:00 15 9 Nordeste 20 Nordeste 0 -- -- 73
2020-03-20 18:00:00 15.5 10 Nordeste 25 Nordeste 0 -- -- 72
2020-03-20 17:00:00 15.7 14 Nordeste 27 Nordeste 0 -- -- 71
2020-03-20 16:00:00 15.9 17 Nordeste 27 Nordeste 0 -- -- 71
2020-03-20 15:00:00 15.8 15 Nordeste 25 Nordeste 0 -- -- 69
2020-03-20 14:00:00 16.6 12 Nordeste 22 Nordeste 0 -- -- 63
2020-03-20 13:00:00 16.1 4 Norte 8 Norte 0 -- -- 64
2020-03-20 12:00:00 15.7 4 Noroeste 15 Nordeste 0 -- -- 63
2020-03-20 11:00:00 15 10 Nordeste 19 Norte 0 -- -- 66
2020-03-20 10:00:00 15.1 10 Nordeste 29 Este 0 -- -- 66
2020-03-20 09:00:00 14.3 14 Este 30 Este 0 -- -- 66
2020-03-20 08:00:00 13.5 8 Este 22 Este 0 -- -- 68
2020-03-20 07:00:00 12.8 8 Este 23 Sudeste 0 -- -- 69
2020-03-20 06:00:00 12.8 10 Este 18 Este 0 -- -- 66
2020-03-20 05:00:00 12.7 8 Este 27 Este 0 -- -- 67
2020-03-20 04:00:00 12.8 12 Nordeste 24 Sudeste 0 -- -- 66
2020-03-20 03:00:00 12.8 13 Sudeste 32 Sudeste 0 -- -- 67
2020-03-20 02:00:00 12.8 15 Sudeste 26 Sudeste 0 -- -- 67
2020-03-20 01:00:00 13.1 12 Sudeste 26 Sudeste 0 -- -- 68
2020-03-20 00:00:00 13.3 14 Sudeste 26 Este 0 -- -- 66
2020-03-19 23:00:00 13.6 11 Este 28 Sudeste 0 -- -- 64
2020-03-19 22:00:00 13.8 8 Sudeste 22 Este 0 -- -- 63
2020-03-19 21:00:00 14.1 12 Sudeste 28 Sudeste 0 -- -- 62
2020-03-19 20:00:00 14.6 12 Sudeste 27 Sudeste 0 -- -- 60
2020-03-19 19:00:00 14.7 2 Oeste 7 Nordeste 0 -- -- 69
2020-03-19 18:00:00 14.9 8 Nordeste 13 Nordeste 0 -- -- 75
2020-03-19 17:00:00 15.1 6 Nordeste 13 Nordeste 0 -- -- 71
2020-03-19 16:00:00 15.3 6 Norte 14 Norte 0 -- -- 70
2020-03-19 15:00:00 15.7 8 Nordeste 16 Norte 0 -- -- 67
2020-03-19 14:00:00 15.8 5 Norte 10 Noroeste 0 -- -- 62
2020-03-19 13:00:00 16.1 6 Nordeste 12 Norte 0 -- -- 61
2020-03-19 12:00:00 15.6 5 Nordeste 9 Nordeste 0 -- -- 64
2020-03-19 11:00:00 16.2 6 Noroeste 15 Oeste 0 -- -- 63
2020-03-19 10:00:00 16.4 10 Sudeste 23 Sudeste 0 -- -- 56
2020-03-19 09:00:00 15.3 0 Calma 9 Sur 0 -- -- 62
2020-03-19 08:00:00 12.7 5 Sur 12 Sur 0 -- -- 71
2020-03-19 07:00:00 11.8 6 Sur 12 Sur 0 -- -- 72
2020-03-19 06:00:00 12 6 Sur 12 Sur 0 -- -- 72
2020-03-19 05:00:00 11.9 8 Sur 12 Sur 0 -- -- 73
2020-03-19 04:00:00 12.2 6 Sur 10 Sur 0 -- -- 73
2020-03-19 03:00:00 12.5 8 Sur 11 Sudoeste 0 -- -- 71
2020-03-19 02:00:00 12.4 7 Sur 12 Sur 0 -- -- 71
2020-03-19 01:00:00 12.6 8 Sur 12 Sur 0 -- -- 70
2020-03-19 00:00:00 13 6 Sur 10 Sur 0 -- -- 68
2020-03-18 23:00:00 13.5 6 Sur 19 Sudeste 0 -- -- 69
2020-03-18 22:00:00 14.9 14 Sudeste 26 Sudeste 0 -- -- 62
2020-03-18 21:00:00 14.7 3 Sudoeste 10 Sur 0 -- -- 67
2020-03-18 20:00:00 14.5 3 Sur 15 Este 0 -- -- 68
2020-03-18 19:00:00 15 7 Este 21 Nordeste 0 -- -- 72
2020-03-18 18:00:00 15 13 Nordeste 21 Nordeste 0 -- -- 84
2020-03-18 17:00:00 15.1 15 Nordeste 24 Nordeste 0 -- -- 83
2020-03-18 16:00:00 15.4 14 Nordeste 26 Nordeste 0 -- -- 83
2020-03-18 15:00:00 15.3 12 Nordeste 27 Nordeste 0 -- -- 83
2020-03-18 14:00:00 15.2 15 Nordeste 27 Nordeste 0 -- -- 83
2020-03-18 13:00:00 15.1 16 Nordeste 28 Nordeste 0 -- -- 83
2020-03-18 12:00:00 15.1 18 Nordeste 27 Nordeste 0 -- -- 82
2020-03-18 11:00:00 14.9 17 Nordeste 25 Nordeste 0 -- -- 84
2020-03-18 10:00:00 14.9 15 Nordeste 25 Nordeste 0 -- -- 82
2020-03-18 09:00:00 14.6 9 Nordeste 18 Este 0 -- -- 77
2020-03-18 08:00:00 14 3 Nordeste 10 Sur 0 -- -- 77
2020-03-18 07:00:00 13 2 Sudeste 16 Este 0 -- -- 80
2020-03-18 06:00:00 13.6 3 Este 13 Nordeste 0 -- -- 80
2020-03-18 05:00:00 13.8 5 Este 21 Nordeste 0 -- -- 78
2020-03-18 04:00:00 14.4 8 Nordeste 16 Nordeste 0 -- -- 78
2020-03-18 03:00:00 14.2 7 Nordeste 25 Nordeste 0 -- -- 84
2020-03-18 02:00:00 14.5 5 Nordeste 27 Nordeste 0 -- -- 81
2020-03-18 01:00:00 15 12 Nordeste 28 Nordeste 0 -- -- 78
2020-03-18 00:00:00 15.7 9 Nordeste 23 Nordeste 0 -- -- 65
2020-03-17 23:00:00 16.8 10 Este 28 Sudeste 0 -- -- 49
2020-03-17 22:00:00 16.8 10 Este 40 Sudeste 0 -- -- 48
2020-03-17 21:00:00 16.6 19 Sudeste 40 Sudeste 0 -- -- 51
2020-03-17 20:00:00 16.4 18 Este 42 Este 0 -- -- 52
2020-03-17 19:00:00 16.2 18 Este 43 Este 0 -- -- 55
2020-03-17 18:00:00 16.6 18 Este 49 Este 0 -- -- 53
2020-03-17 17:00:00 16.7 27 Este 45 Sudeste 0 -- -- 57
2020-03-17 16:00:00 17.3 21 Este 47 Este 0 -- -- 61
2020-03-17 15:00:00 17.8 19 Este 41 Este 0 -- -- 63
2020-03-17 14:00:00 17.9 21 Este 45 Este 0 -- -- 66
2020-03-17 13:00:00 17.6 19 Este 41 Este 0 -- -- 69
2020-03-17 12:00:00 16.8 19 Este 40 Este 0 -- -- 73
2020-03-17 11:00:00 17.1 17 Sudeste 41 Este 0 -- -- 72
2020-03-17 10:00:00 16.9 11 Sudeste 41 Este 0 -- -- 73
2020-03-17 09:00:00 16 17 Nordeste 46 Este 0 -- -- 78
2020-03-17 08:00:00 16.3 21 Sudeste 47 Este 0 -- -- 75
2020-03-17 07:00:00 16.3 5 Nordeste 18 Sudeste 0 -- -- 76
2020-03-17 06:00:00 16 8 Sudeste 24 Sudeste 0 -- -- 76
2020-03-17 05:00:00 16.4 14 Este 27 Sudeste 0 -- -- 74
2020-03-17 04:00:00 15.8 3 Este 23 Sudeste 0 -- -- 79
2020-03-17 03:00:00 16.3 15 Sur 58 Sudeste 0 -- -- 74
2020-03-17 02:00:00 16.2 36 Sudeste 60 Sudeste 0 -- -- 76
2020-03-17 01:00:00 15.7 31 Sudeste 57 Sudeste 0.2 -- -- 79
2020-03-17 00:00:00 15.7 31 Sudeste 52 Sudeste 0 -- -- 81
2020-03-16 23:00:00 15.9 29 Sudeste 49 Sudeste 0 -- -- 79
2020-03-16 22:00:00 16.1 29 Sudeste 51 Sudeste 0 -- -- 77
2020-03-16 21:00:00 16.3 27 Sudeste 48 Sudeste 0 -- -- 76
2020-03-16 20:00:00 16.8 26 Sudeste 50 Sudeste 0 -- -- 72
2020-03-16 19:00:00 17 22 Sudeste 38 Sudeste 0 -- -- 72
2020-03-16 18:00:00 17.6 19 Sudeste 37 Sudeste 0 -- -- 70
2020-03-16 17:00:00 18.2 13 Este 31 Este 0 -- -- 69
2020-03-16 16:00:00 18.7 11 Este 46 Sudeste 0 -- -- 67
2020-03-16 15:00:00 18.5 25 Sudeste 54 Sudeste 0 -- -- 66
2020-03-16 14:00:00 17.9 24 Sudeste 59 Sudeste 0 -- -- 70
2020-03-16 13:00:00 17.3 31 Sudeste 63 Sudeste 0 -- -- 73
2020-03-16 12:00:00 16.3 34 Sudeste 64 Sudeste 0 -- -- 76
2020-03-16 11:00:00 15.7 32 Sudeste 66 Sudeste 0 -- -- 79
2020-03-16 10:00:00 15.4 38 Sudeste 69 Sudeste 0 -- -- 79
2020-03-16 09:00:00 15.5 37 Sudeste 68 Sudeste 0 -- -- 76
2020-03-16 08:00:00 14.9 29 Sudeste 62 Sudeste 0.2 -- -- 76
2020-03-16 07:00:00 13.9 20 Sudeste 46 Sudeste 1.2 -- -- 82
2020-03-16 06:00:00 14.4 11 Este 44 Sudeste 0 -- -- 72
2020-03-16 05:00:00 14.4 12 Sudeste 35 Nordeste 0 -- -- 67
2020-03-16 04:00:00 14.9 16 Nordeste 32 Nordeste 0 -- -- 52
2020-03-16 03:00:00 14.3 4 Sudeste 17 Nordeste 0 -- -- 39
2020-03-16 02:00:00 14.9 9 Nordeste 32 Nordeste 0 -- -- 55
2020-03-16 01:00:00 14.4 17 Nordeste 35 Este 0 -- -- 57
2020-03-16 00:00:00 14.4 9 Este 30 Norte 0 -- -- 58
2020-03-15 23:00:00 14.4 9 Nordeste 23 Nordeste 0 -- -- 58
2020-03-15 22:00:00 14.2 10 Norte 24 Norte 0 -- -- 65
2020-03-15 21:00:00 14.1 9 Norte 22 Norte 0 -- -- 67
2020-03-15 20:00:00 13.9 4 Sur 10 Sudoeste 0 -- -- 77
2020-03-15 19:00:00 14.8 5 Sur 14 Norte 0 -- -- 74
2020-03-15 18:00:00 15.5 12 Norte 16 Noroeste 0 -- -- 72
2020-03-15 17:00:00 16 8 Norte 17 Norte 0 -- -- 70
2020-03-15 16:00:00 15.8 11 Norte 15 Norte 0 -- -- 73
2020-03-15 15:00:00 15.9 7 Norte 11 Norte 0 -- -- 70
2020-03-15 14:00:00 15.7 3 Norte 8 Noroeste 0 -- -- 70
2020-03-15 13:00:00 15.5 4 Noroeste 10 Oeste 0 -- -- 70
2020-03-15 12:00:00 16.1 5 Noroeste 9 Oeste 0 -- -- 68
2020-03-15 11:00:00 15.5 4 Noroeste 7 Oeste 0 -- -- 68
2020-03-15 10:00:00 14.6 2 Norte 6 Oeste 0 -- -- 74
2020-03-15 09:00:00 13.4 3 Sur 9 Sur 0 -- -- 75
2020-03-15 08:00:00 11.2 5 Sur 12 Sur 0 -- -- 83
2020-03-15 07:00:00 10.6 8 Sur 13 Sur 0 -- -- 83
2020-03-15 06:00:00 11 9 Sur 12 Sur 0 -- -- 82
2020-03-15 05:00:00 10.7 4 Sur 12 Sur 0 -- -- 85
2020-03-15 04:00:00 10.8 8 Sur 12 Sur 0 -- -- 85
2020-03-15 03:00:00 11 8 Sur 11 Sur 0 -- -- 85
2020-03-15 02:00:00 11.1 8 Sur 12 Sur 0 -- -- 84
2020-03-15 01:00:00 11.6 7 Sur 13 Sur 0 -- -- 84
2020-03-15 00:00:00 11.4 8 Sur 12 Sur 0 -- -- 83
2020-03-14 23:00:00 11.7 8 Sur 12 Sur 0 -- -- 83
2020-03-14 22:00:00 12 8 Sur 12 Sur 0 -- -- 83
2020-03-14 21:00:00 12.3 9 Sur 11 Sur 0 -- -- 80
2020-03-14 20:00:00 12.9 7 Sur 11 Sur 0 -- -- 77
2020-03-14 19:00:00 14 5 Sur 9 Sur 0 -- -- 72
2020-03-14 18:00:00 16.9 0 Calma 6 Norte 0 -- -- 63
2020-03-14 17:00:00 16.3 4 Norte 8 Norte 0 -- -- 67
2020-03-14 16:00:00 16.3 5 Norte 10 Norte 0 -- -- 70
2020-03-14 15:00:00 16.4 5 Norte 10 Noroeste 0 -- -- 69
2020-03-14 14:00:00 16.2 4 Norte 11 Noroeste 0 -- -- 68
2020-03-14 13:00:00 16.2 5 Noroeste 15 Oeste 0 -- -- 71
2020-03-14 12:00:00 16 5 Noroeste 12 Noroeste 0 -- -- 76
2020-03-14 11:00:00 15.7 4 Oeste 8 Noroeste 0 -- -- 74
2020-03-14 10:00:00 15.3 3 Norte 6 Sur 0 -- -- 75
2020-03-14 09:00:00 14 2 Sur 10 Sur 0 -- -- 79
2020-03-14 08:00:00 12.3 4 Sur 10 Sur 0 -- -- 85
2020-03-14 07:00:00 11.8 5 Sur 10 Sur 0 -- -- 86
2020-03-14 06:00:00 12.4 3 Sur 10 Sur 0 -- -- 84
2020-03-14 05:00:00 12.4 7 Sur 11 Sur 0 -- -- 86
2020-03-14 04:00:00 13.1 5 Sudeste 17 Sudeste 0 -- -- 84
2020-03-14 03:00:00 13.6 6 Sudeste 10 Sur 0.8 -- -- 87
2020-03-14 02:00:00 13.9 3 Sur 12 Sudeste 0.2 -- -- 82
2020-03-14 01:00:00 14.3 5 Sur 9 Oeste 0 -- -- 75
2020-03-14 00:00:00 13.8 4 Sudeste 6 Sur 0 -- -- 72
2020-03-13 23:00:00 13.9 3 Sur 8 Sudoeste 0 -- -- 70
2020-03-13 22:00:00 13.1 4 Sur 8 Sur 0 -- -- 76
2020-03-13 21:00:00 13.1 6 Sur 9 Sur 0 -- -- 78
2020-03-13 20:00:00 13.4 5 Sur 8 Sur 0 -- -- 77
2020-03-13 19:00:00 14.4 3 Nordeste 19 Nordeste 0 -- -- 78
2020-03-13 18:00:00 14.8 15 Nordeste 26 Nordeste 0 -- -- 77
2020-03-13 17:00:00 15.9 12 Nordeste 26 Nordeste 0 -- -- 76
2020-03-13 16:00:00 15.9 17 Nordeste 40 Nordeste 0 -- -- 74
2020-03-13 15:00:00 16 22 Nordeste 37 Nordeste 0 -- -- 72
2020-03-13 14:00:00 17.2 20 Nordeste 37 Nordeste 0 -- -- 62
2020-03-13 13:00:00 17.7 19 Nordeste 35 Nordeste 0 -- -- 59
2020-03-13 12:00:00 17.4 18 Nordeste 33 Nordeste 0 -- -- 63
2020-03-13 11:00:00 17.1 12 Nordeste 22 Nordeste 0 -- -- 61
2020-03-13 10:00:00 17.6 3 Norte 16 Oeste 0 -- -- 56
2020-03-13 09:00:00 15.9 6 Sudoeste 12 Sur 0 -- -- 58
2020-03-13 08:00:00 14.3 7 Sur 10 Sur 0 -- -- 56
2020-03-13 07:00:00 13.3 4 Sur 10 Sur 0 -- -- 55
2020-03-13 06:00:00 13.9 3 Sur 11 Sur 0 -- -- 54
2020-03-13 05:00:00 12.9 8 Sur 12 Sur 0 -- -- 63
2020-03-13 04:00:00 13.5 6 Sur 12 Sudeste 0 -- -- 61
2020-03-13 03:00:00 13.7 4 Sur 8 Sur 0 -- -- 72
2020-03-13 02:00:00 15.4 3 Sudeste 10 Sur 0 -- -- 48
2020-03-13 01:00:00 15.3 5 Sur 12 Sur 0 -- -- 49
2020-03-13 00:00:00 15.4 5 Sur 12 Sur 0 -- -- 49
2020-03-12 23:00:00 15.7 2 Este 7 Sur 0 -- -- 48
2020-03-12 22:00:00 15.1 4 Sur 9 Sur 0 -- -- 53
2020-03-12 21:00:00 14.8 4 Sur 6 Sudoeste 0 -- -- 59
2020-03-12 20:00:00 14.6 4 Sur 9 Sur 0 -- -- 64
2020-03-12 19:00:00 16 0 Calma 5 Sur 0 -- -- 69
2020-03-12 18:00:00 18.4 0 Calma 7 Norte 0 -- -- 68
2020-03-12 17:00:00 18.6 0 Calma 5 Norte 0 -- -- 68
2020-03-12 16:00:00 18.4 2 Noroeste 5 Norte 0 -- -- 75
2020-03-12 15:00:00 18.4 2 Noroeste 6 Norte 0 -- -- 71
2020-03-12 14:00:00 18.9 3 Norte 6 Norte 0 -- -- 69
2020-03-12 13:00:00 18.6 2 Noroeste 7 Norte 0 -- -- 58
2020-03-12 12:00:00 18.4 3 Nordeste 6 Este 0 -- -- 55
2020-03-12 11:00:00 18.1 0 Calma 4 Nordeste 0 -- -- 59
2020-03-12 10:00:00 18.4 0 Calma 5 Sur 0 -- -- 56
2020-03-12 09:00:00 17 2 Nordeste 9 Sur 0 -- -- 62
2020-03-12 08:00:00 14.3 6 Sur 11 Sur 0 -- -- 60
2020-03-12 07:00:00 13.7 4 Sur 10 Sur 0 -- -- 59
2020-03-12 06:00:00 14 5 Sur 10 Sur 0 -- -- 61
2020-03-12 05:00:00 14.2 5 Sur 10 Sur 0 -- -- 59
2020-03-12 04:00:00 14.2 2 Sur 8 Sudoeste 0 -- -- 58
2020-03-12 03:00:00 14.9 2 Este 8 Sur 0 -- -- 67
2020-03-12 02:00:00 15 4 Sudoeste 9 Sur 0 -- -- 54
2020-03-12 01:00:00 14.9 3 Este 7 Sur 0 -- -- 56
2020-03-12 00:00:00 15.4 4 Sur 11 Sur 0 -- -- 51
2020-03-11 23:00:00 15.8 8 Sur 12 Sur 0 -- -- 52
2020-03-11 22:00:00 15.2 9 Sur 12 Sur 0 -- -- 56
2020-03-11 21:00:00 15.2 6 Sur 11 Sur 0 -- -- 57
2020-03-11 20:00:00 15.9 6 Sur 9 Sudoeste 0 -- -- 53
2020-03-11 19:00:00 16.6 4 Sur 6 Sur 0 -- -- 59
2020-03-11 18:00:00 18.3 0 Calma 9 Oeste 0 -- -- 68
2020-03-11 17:00:00 18.6 6 Oeste 12 Oeste 0 -- -- 70
2020-03-11 16:00:00 19.7 3 Este 13 Oeste 0 -- -- 60
2020-03-11 15:00:00 18.7 4 Norte 20 Oeste 0 -- -- 68
2020-03-11 14:00:00 18.2 8 Sudoeste 19 Sudoeste 0 -- -- 69
2020-03-11 13:00:00 17.4 9 Oeste 18 Oeste 0 -- -- 67
2020-03-11 12:00:00 17.2 4 Norte 17 Oeste 0 -- -- 69
2020-03-11 11:00:00 17.8 3 Noroeste 6 Este 0 -- -- 55
2020-03-11 10:00:00 18.2 0 Calma 9 Sudeste 0 -- -- 51
2020-03-11 09:00:00 17.7 3 Sur 14 Sur 0 -- -- 47
2020-03-11 08:00:00 13.7 6 Sur 14 Sur 0 -- -- 54
2020-03-11 07:00:00 13.7 8 Sur 11 Sur 0 -- -- 49
2020-03-11 06:00:00 13.5 6 Sur 12 Sur 0 -- -- 50
2020-03-11 05:00:00 13.2 7 Sur 13 Sur 0 -- -- 48
2020-03-11 04:00:00 12.6 7 Sur 12 Sur 0 -- -- 53
2020-03-11 03:00:00 12.6 6 Sur 11 Sur 0 -- -- 51
2020-03-11 02:00:00 12.6 4 Sur 9 Sur 0 -- -- 54
2020-03-11 01:00:00 13.3 4 Sur 12 Sur 0 -- -- 44
2020-03-11 00:00:00 12.7 8 Sur 12 Sur 0 -- -- 53
2020-03-10 23:00:00 12.6 6 Sur 13 Sur 0 -- -- 56
2020-03-10 22:00:00 13 5 Sur 11 Sudeste 0 -- -- 64
2020-03-10 21:00:00 13.1 6 Sur 13 Sur 0 -- -- 65
2020-03-10 20:00:00 13.8 5 Sur 12 Sur 0 -- -- 64
2020-03-10 19:00:00 13.8 5 Sur 22 Oeste 0 -- -- 66
2020-03-10 18:00:00 15 13 Sudoeste 32 Sudoeste 0 -- -- 65
2020-03-10 17:00:00 15.8 19 Oeste 30 Oeste 0 -- -- 64
2020-03-10 16:00:00 16.2 18 Oeste 30 Oeste 0 -- -- 63
2020-03-10 15:00:00 16.3 17 Sudoeste 32 Sudoeste 0 -- -- 60
2020-03-10 14:00:00 15.6 19 Oeste 30 Sudoeste 0 -- -- 63
2020-03-10 13:00:00 16 14 Oeste 25 Oeste 0 -- -- 58
2020-03-10 12:00:00 14.9 12 Oeste 20 Oeste 0 -- -- 63
2020-03-10 11:00:00 14.6 9 Oeste 16 Oeste 0 -- -- 65
2020-03-10 10:00:00 14.2 8 Oeste 12 Sudoeste 0 -- -- 63
2020-03-10 09:00:00 13.3 4 Sudoeste 6 Sur 0 -- -- 68
2020-03-10 08:00:00 12.2 3 Sur 10 Sur 0 -- -- 68
2020-03-10 07:00:00 11.5 4 Sur 12 Sur 0 -- -- 70
2020-03-10 06:00:00 10.2 5 Sudeste 12 Sur 0 -- -- 72
2020-03-10 05:00:00 11.1 4 Sur 10 Sudeste 0 -- -- 69
2020-03-10 04:00:00 10.7 6 Sur 13 Sudeste 0 -- -- 70
2020-03-10 03:00:00 12.3 8 Sur 33 Sudeste 0 -- -- 62
2020-03-10 02:00:00 12.5 19 Sudeste 35 Sudeste 0 -- -- 66
2020-03-10 01:00:00 12.4 19 Sudeste 35 Sudeste 0 -- -- 67
2020-03-10 00:00:00 13.1 9 Sur 24 Norte 0 -- -- 73
2020-03-09 23:00:00 14.3 14 Noroeste 31 Norte 0 -- -- 71
2020-03-09 22:00:00 14.6 21 Norte 38 Noroeste 0 -- -- 62
2020-03-09 21:00:00 14.8 11 Noroeste 26 Sudoeste 0 -- -- 59
2020-03-09 20:00:00 14.7 6 Oeste 22 Noroeste 0 -- -- 52
2020-03-09 19:00:00 13.1 8 Sur 16 Sudoeste 0 -- -- 62
2020-03-09 18:00:00 16.1 7 Sudoeste 12 Sudoeste 0 -- -- 51
2020-03-09 17:00:00 16.2 7 Oeste 15 Noroeste 0 -- -- 52
2020-03-09 16:00:00 15.4 12 Norte 33 Norte 0 -- -- 54
2020-03-09 15:00:00 15 22 Norte 36 Noroeste 0 -- -- 55
2020-03-09 14:00:00 15.2 25 Norte 35 Noroeste 0 -- -- 54
2020-03-09 13:00:00 15.3 19 Norte 30 Norte 0 -- -- 56
2020-03-09 12:00:00 14.6 19 Norte 37 Norte 0 -- -- 57
2020-03-09 11:00:00 14.6 25 Norte 37 Norte 0 -- -- 59
2020-03-09 10:00:00 14.9 13 Noroeste 26 Norte 0 -- -- 62
2020-03-09 09:00:00 14.9 12 Noroeste 23 Noroeste 0 -- -- 62
2020-03-09 08:00:00 14.8 10 Oeste 30 Oeste 0 -- -- 61
2020-03-09 07:00:00 15.4 10 Oeste 27 Sur 0 -- -- 59
2020-03-09 06:00:00 15.4 12 Sudoeste 28 Sur 0 -- -- 58
2020-03-09 05:00:00 15.9 9 Sudoeste 32 Sudoeste 0 -- -- 53
2020-03-09 04:00:00 15.3 7 Sudoeste 17 Sudoeste 0 -- -- 47
2020-03-09 03:00:00 12.4 5 Sur 11 Sur 0 -- -- 52
2020-03-09 02:00:00 14.4 6 Sur 9 Sur 0 -- -- 41
2020-03-09 01:00:00 14.6 5 Sudoeste 12 Sudoeste 0 -- -- 41
2020-03-09 00:00:00 15.3 0 Calma 12 Sur 0 -- -- 40
2020-03-08 23:00:00 14.7 4 Sur 9 Sur 0 -- -- 43
2020-03-08 22:00:00 15.2 8 Sudoeste 17 Sur 0 -- -- 43
2020-03-08 21:00:00 13.2 7 Sudoeste 14 Sur 0 -- -- 46
2020-03-08 20:00:00 13.1 5 Sur 11 Sur 0 -- -- 49
2020-03-08 19:00:00 13.1 8 Sur 11 Sudoeste 0 -- -- 51
2020-03-08 18:00:00 17.1 4 Sudoeste 12 Oeste 0 -- -- 43
2020-03-08 17:00:00 16.8 3 Norte 5 Norte 0 -- -- 50
2020-03-08 16:00:00 16.6 4 Norte 6 Norte 0 -- -- 51
2020-03-08 15:00:00 16.3 4 Norte 8 Norte 0 -- -- 53
2020-03-08 14:00:00 15.7 6 Norte 10 Norte 0 -- -- 51
2020-03-08 13:00:00 15.8 5 Nordeste 14 Noroeste 0 -- -- 49
2020-03-08 12:00:00 15.8 5 Noroeste 15 Oeste 0 -- -- 48
2020-03-08 11:00:00 14.5 5 Noroeste 9 Noroeste 0 -- -- 67
2020-03-08 10:00:00 14.4 4 Oeste 14 Oeste 0 -- -- 66
2020-03-08 09:00:00 14 5 Sudoeste 15 Sudoeste 0 -- -- 67
2020-03-08 08:00:00 12.2 8 Sudoeste 15 Sudoeste 0 -- -- 72
2020-03-08 07:00:00 12 10 Sudoeste 21 Oeste 0 -- -- 69
2020-03-08 06:00:00 13.2 7 Oeste 24 Oeste 0 -- -- 75
2020-03-08 05:00:00 13.4 9 Oeste 23 Oeste 0 -- -- 71
2020-03-08 04:00:00 13.3 9 Sudoeste 21 Sudoeste 0 -- -- 68
2020-03-08 03:00:00 13.2 10 Sudoeste 21 Sudoeste 0 -- -- 68
2020-03-08 02:00:00 12.5 9 Sudoeste 17 Sudoeste 0 -- -- 65
2020-03-08 01:00:00 10.7 6 Sur 10 Sur 0 -- -- 64
2020-03-08 00:00:00 11.2 7 Sudeste 14 Sudoeste 0 -- -- 57
2020-03-07 23:00:00 12.7 8 Sudoeste 28 Sudoeste 0 -- -- 55
2020-03-07 22:00:00 13.1 11 Sudoeste 30 Oeste 0 -- -- 53
2020-03-07 21:00:00 10.8 9 Sur 18 Sur 0 -- -- 51
2020-03-07 20:00:00 10.2 12 Sur 16 Sur 0 -- -- 41
2020-03-07 19:00:00 9.7 10 Sur 14 Sur 0 -- -- 47
2020-03-07 18:00:00 12.4 8 Sur 10 Sur 0 -- -- 60
2020-03-07 17:00:00 13.4 5 Norte 8 Norte 0 -- -- 53
2020-03-07 16:00:00 13.9 5 Norte 12 Norte 0 -- -- 54
2020-03-07 15:00:00 13.8 4 Noroeste 14 Norte 0 -- -- 54
2020-03-07 14:00:00 12.9 9 Norte 21 Norte 0 -- -- 59
2020-03-07 13:00:00 12.5 14 Norte 26 Norte 0 -- -- 65
2020-03-07 12:00:00 12 15 Norte 27 Norte 0 -- -- 68
2020-03-07 11:00:00 11.5 16 Norte 29 Norte 0 -- -- 67
2020-03-07 10:00:00 11.2 22 Norte 41 Norte 0 -- -- 67
2020-03-07 09:00:00 11.1 24 Norte 38 Norte 0 -- -- 68
2020-03-07 08:00:00 11.1 25 Norte 42 Norte 0 -- -- 72
2020-03-07 07:00:00 11 27 Norte 48 Norte 0 -- -- 70
2020-03-07 06:00:00 11 33 Norte 54 Noroeste 0 -- -- 69
2020-03-07 05:00:00 11.1 36 Norte 55 Norte 0 -- -- 67
2020-03-07 04:00:00 10.9 40 Norte 58 Norte 0 -- -- 66
2020-03-07 03:00:00 10.9 43 Norte 63 Norte 0 -- -- 67
2020-03-07 02:00:00 11.1 41 Norte 62 Noroeste 0 -- -- 62
2020-03-07 01:00:00 11.2 45 Norte 66 Noroeste 0 -- -- 65
2020-03-07 00:00:00 11.3 49 Norte 71 Norte 0 -- -- 61
2020-03-06 23:00:00 11.5 46 Norte 67 Noroeste 0 -- -- 62
2020-03-06 22:00:00 11.8 39 Norte 69 Norte 0 -- -- 60
2020-03-06 21:00:00 12.4 41 Norte 72 Norte 0 -- -- 52
2020-03-06 20:00:00 12.9 39 Norte 75 Noroeste 0 -- -- 52
2020-03-06 19:00:00 13.4 45 Norte 67 Norte 0 -- -- 48
2020-03-06 18:00:00 13.5 37 Norte 68 Norte 0 -- -- 48
2020-03-06 17:00:00 13.7 31 Noroeste 58 Noroeste 0 -- -- 49
2020-03-06 16:00:00 13.4 25 Noroeste 54 Noroeste 0 -- -- 53
2020-03-06 15:00:00 13.4 22 Noroeste 62 Oeste 0 -- -- 55
2020-03-06 14:00:00 13.9 16 Noroeste 37 Norte 0 -- -- 56
2020-03-06 13:00:00 14.1 18 Norte 35 Noroeste 0 -- -- 54
2020-03-06 12:00:00 14.4 10 Noroeste 23 Noroeste 0 -- -- 66
2020-03-06 11:00:00 14.6 12 Noroeste 37 Noroeste 0 -- -- 64
2020-03-06 10:00:00 14.3 13 Noroeste 32 Oeste 0 -- -- 55
2020-03-06 09:00:00 13.6 14 Oeste 28 Noroeste 0 -- -- 61
2020-03-06 08:00:00 13.6 13 Noroeste 27 Noroeste 0 -- -- 60
2020-03-06 07:00:00 13.6 16 Noroeste 36 Norte 0 -- -- 57
2020-03-06 06:00:00 13.8 20 Noroeste 45 Noroeste 0 -- -- 54
2020-03-06 05:00:00 14 22 Noroeste 40 Norte 0 -- -- 54
2020-03-06 04:00:00 14.2 19 Noroeste 43 Noroeste 0 -- -- 56
2020-03-06 03:00:00 14.6 19 Noroeste 45 Norte 0 -- -- 52
2020-03-06 02:00:00 14.9 14 Noroeste 41 Noroeste 0 -- -- 55
2020-03-06 01:00:00 15.3 15 Noroeste 33 Noroeste 0 -- -- 52
2020-03-06 00:00:00 15.2 6 Oeste 28 Sudoeste 0 -- -- 58
2020-03-05 23:00:00 15.3 10 Sudoeste 33 Sudoeste 0 -- -- 57
2020-03-05 22:00:00 16.7 11 Sudoeste 33 Sudoeste 0 -- -- 51
2020-03-05 21:00:00 17.9 13 Sudoeste 37 Sudoeste 0 -- -- 43
2020-03-05 20:00:00 17.6 20 Sur 42 Sudoeste 0 -- -- 49
2020-03-05 19:00:00 17.6 27 Sudoeste 62 Sudoeste 0 -- -- 61
2020-03-05 18:00:00 18 24 Sudoeste 58 Sudoeste 0 -- -- 57
2020-03-05 17:00:00 18.5 22 Oeste 64 Sudoeste 0 -- -- 53
2020-03-05 16:00:00 19 28 Sudoeste 63 Oeste 0 -- -- 51
2020-03-05 15:00:00 18.5 25 Sudoeste 57 Oeste 0 -- -- 53
2020-03-05 14:00:00 18.1 27 Sudoeste 59 Sudoeste 0 -- -- 53
2020-03-05 13:00:00 18.2 30 Sudoeste 66 Oeste 0 -- -- 49
2020-03-05 12:00:00 18.1 20 Sudoeste 45 Sudoeste 0 -- -- 52
2020-03-05 11:00:00 17.3 21 Sudoeste 45 Sudoeste 0 -- -- 55
2020-03-05 10:00:00 16.4 15 Sudoeste 35 Oeste 0 -- -- 61
2020-03-05 09:00:00 16.3 14 Sudoeste 36 Oeste 0 -- -- 63
2020-03-05 08:00:00 16.2 15 Oeste 34 Sudoeste 0 -- -- 66
2020-03-05 07:00:00 14.9 3 Sudeste 11 Sur 0 -- -- 69
2020-03-05 06:00:00 14.8 4 Sur 10 Nordeste 0 -- -- 68
2020-03-05 05:00:00 15.2 3 Este 12 Este 0 -- -- 67
2020-03-05 04:00:00 16 9 Sudeste 15 Este 0 -- -- 61
2020-03-05 03:00:00 16.4 4 Sur 15 Sudeste 0 -- -- 57
2020-03-05 02:00:00 18.2 8 Sudoeste 17 Sudoeste 0 -- -- 49
2020-03-05 01:00:00 18.3 9 Sudoeste 21 Sudoeste 0 -- -- 50
2020-03-05 00:00:00 18 11 Sudoeste 21 Sudoeste 0 -- -- 52